Aviation Digital Data Service (ADDS)

Output produced by METARs form (0211 UTC 16 January 2019)
found at http://www.aviationweather.gov/metar/data/
 
TAF TLPC 152300Z 1600/1624 10007KT 9999 SCT025 
     PROB30 
     TEMPO 1606/1612 SHRA
       
TAF TLPL 152300Z 1600/1624 09015KT 9999 SCT025 
     PROB30 
     TEMPO 1606/1612 SHRA